createdAt,value
2018-10-18T00:01:50.213Z,11.92
2018-10-18T00:04:19.057Z,12.01
2018-10-18T00:06:47.864Z,12.04
2018-10-18T00:09:16.738Z,12.04
2018-10-18T00:11:45.661Z,12.02
2018-10-18T00:14:14.592Z,12.10
2018-10-18T00:16:43.389Z,12.08
2018-10-18T00:19:12.300Z,12.04
2018-10-18T00:21:41.083Z,12.13
2018-10-18T00:24:10.262Z,12.10
2018-10-18T00:26:39.336Z,12.03
2018-10-18T00:29:08.184Z,12.03
2018-10-18T00:31:36.981Z,12.01
2018-10-18T00:34:05.870Z,11.98
2018-10-18T00:36:34.902Z,11.93
2018-10-18T00:39:06.380Z,11.92
2018-10-18T00:41:35.437Z,11.97
2018-10-18T00:44:05.209Z,11.95
2018-10-18T00:46:34.103Z,11.97
2018-10-18T00:49:03.014Z,11.88
2018-10-18T00:51:31.823Z,11.74
2018-10-18T00:54:00.720Z,11.90
2018-10-18T00:56:29.554Z,11.96
2018-10-18T00:58:58.320Z,11.74
2018-10-18T01:01:27.233Z,11.90
2018-10-18T01:03:56.093Z,11.49
2018-10-18T01:06:24.974Z,11.70
2018-10-18T01:08:53.780Z,11.89
2018-10-18T01:11:22.621Z,11.85
2018-10-18T01:13:51.480Z,11.86
2018-10-18T01:16:20.317Z,11.91
2018-10-18T01:18:49.134Z,11.92
2018-10-18T01:21:17.981Z,11.81
2018-10-18T01:23:46.745Z,11.83
2018-10-18T01:26:15.773Z,11.81
2018-10-18T01:28:44.547Z,11.63
2018-10-18T01:31:13.400Z,11.65
2018-10-18T01:33:42.216Z,11.75
2018-10-18T01:36:11.176Z,11.58
2018-10-18T01:38:40.154Z,11.75
2018-10-18T01:41:09.021Z,11.39
2018-10-18T01:43:38.471Z,11.67
2018-10-18T01:46:07.395Z,11.73
2018-10-18T01:48:36.221Z,11.81
2018-10-18T01:51:05.403Z,11.75
2018-10-18T01:53:34.254Z,11.49
2018-10-18T01:56:03.524Z,11.73
2018-10-18T01:58:32.349Z,11.86
2018-10-18T02:01:01.448Z,11.94
2018-10-18T02:03:30.339Z,11.94
2018-10-18T02:05:59.495Z,11.88
2018-10-18T02:08:28.338Z,11.89
2018-10-18T02:10:57.141Z,11.72
2018-10-18T02:13:26.045Z,11.80
2018-10-18T02:15:55.400Z,11.77
2018-10-18T02:18:24.835Z,11.80
2018-10-18T02:20:53.656Z,11.74
2018-10-18T02:23:22.501Z,11.63
2018-10-18T02:25:51.403Z,11.71
2018-10-18T02:28:20.326Z,11.75
2018-10-18T02:30:49.163Z,11.74
2018-10-18T02:33:18.024Z,11.79
2018-10-18T02:35:46.868Z,11.77
2018-10-18T02:38:15.739Z,11.74
2018-10-18T02:40:44.610Z,11.63
2018-10-18T02:43:13.881Z,11.59
2018-10-18T02:45:42.701Z,11.65
2018-10-18T02:48:11.584Z,11.68
2018-10-18T02:50:40.396Z,11.66
2018-10-18T02:53:09.440Z,11.74
2018-10-18T02:55:38.260Z,11.66
2018-10-18T02:58:07.103Z,11.67
2018-10-18T03:00:35.922Z,11.65
2018-10-18T03:03:05.092Z,11.64
2018-10-18T03:05:34.025Z,11.57
2018-10-18T03:08:02.932Z,11.07
2018-10-18T03:10:31.826Z,11.16
2018-10-18T03:13:00.989Z,11.29
2018-10-18T03:15:29.885Z,11.32
2018-10-18T03:17:58.857Z,11.37
2018-10-18T03:20:27.697Z,11.33
2018-10-18T03:22:56.816Z,11.33
2018-10-18T03:25:25.709Z,11.24
2018-10-18T03:27:54.575Z,11.33
2018-10-18T03:30:23.622Z,11.21
2018-10-18T03:32:52.411Z,11.27
2018-10-18T03:35:21.245Z,11.22
2018-10-18T03:37:50.068Z,11.15
2018-10-18T03:40:18.900Z,11.20
2018-10-18T03:42:47.792Z,11.14
2018-10-18T03:45:18.545Z,11.11
2018-10-18T03:47:47.416Z,11.19
2018-10-18T03:50:16.363Z,11.18
2018-10-18T03:52:45.272Z,11.22
2018-10-18T03:55:14.251Z,11.23
2018-10-18T03:57:43.196Z,10.93
2018-10-18T04:00:12.088Z,11.03
2018-10-18T04:02:40.961Z,11.20
2018-10-18T04:05:10.167Z,11.27
2018-10-18T04:07:39.225Z,11.16
2018-10-18T04:10:08.324Z,11.28
2018-10-18T04:12:37.525Z,11.10
2018-10-18T04:15:06.920Z,11.21
2018-10-18T04:17:35.802Z,11.35
2018-10-18T04:20:05.869Z,11.34
2018-10-18T04:22:34.718Z,11.31
2018-10-18T04:25:03.755Z,11.34
2018-10-18T04:27:32.573Z,11.41
2018-10-18T04:30:01.410Z,11.39
2018-10-18T04:32:30.556Z,11.38
2018-10-18T04:34:59.423Z,11.37
2018-10-18T04:37:28.364Z,11.39
2018-10-18T04:39:57.180Z,11.41
2018-10-18T04:42:26.093Z,11.43
2018-10-18T04:44:55.011Z,11.39
2018-10-18T04:47:23.956Z,11.32
2018-10-18T04:49:52.680Z,11.21
2018-10-18T04:52:21.581Z,11.17
2018-10-18T04:54:50.397Z,11.24
2018-10-18T04:57:19.368Z,10.98
2018-10-18T04:59:48.281Z,11.01
2018-10-18T05:02:17.100Z,10.97
2018-10-18T05:05:02.869Z,11.24
2018-10-18T05:07:32.738Z,11.24
2018-10-18T05:10:01.617Z,11.25
2018-10-18T05:12:30.440Z,11.17
2018-10-18T05:14:59.320Z,11.10
2018-10-18T05:17:28.166Z,11.11
2018-10-18T05:19:57.247Z,11.11
2018-10-18T05:22:26.068Z,11.20
2018-10-18T05:24:55.028Z,11.17
2018-10-18T05:27:23.843Z,11.17
2018-10-18T05:29:52.742Z,11.16
2018-10-18T05:32:21.664Z,11.22
2018-10-18T05:34:50.540Z,11.05
2018-10-18T05:37:19.448Z,10.84
2018-10-18T05:39:48.281Z,10.89
2018-10-18T05:42:17.191Z,10.98
2018-10-18T05:44:46.144Z,11.12
2018-10-18T05:47:15.069Z,11.18
2018-10-18T05:49:44.277Z,11.07
2018-10-18T05:52:13.079Z,11.14
2018-10-18T05:54:41.906Z,11.06
2018-10-18T05:57:11.052Z,11.14
2018-10-18T05:59:39.937Z,10.94
2018-10-18T06:02:08.930Z,11.07
2018-10-18T06:04:37.794Z,10.86
2018-10-18T06:07:06.849Z,10.96
2018-10-18T06:09:35.807Z,11.21
2018-10-18T06:12:04.851Z,11.33
2018-10-18T06:14:33.912Z,11.38
2018-10-18T06:17:03.113Z,11.41
2018-10-18T06:19:32.031Z,11.29
2018-10-18T06:22:00.993Z,11.40
2018-10-18T06:24:29.922Z,11.10
2018-10-18T06:26:58.818Z,11.26
2018-10-18T06:29:28.122Z,11.39
2018-10-18T06:31:57.064Z,11.46
2018-10-18T06:34:26.031Z,11.53
2018-10-18T06:36:55.370Z,11.70
2018-10-18T06:39:24.228Z,11.76
2018-10-18T06:41:53.192Z,11.74
2018-10-18T06:44:22.428Z,11.87
2018-10-18T06:46:51.464Z,11.87
2018-10-18T06:49:20.396Z,11.80
2018-10-18T06:51:49.269Z,11.86
2018-10-18T06:54:18.507Z,11.88
2018-10-18T06:56:47.315Z,11.96
2018-10-18T06:59:16.325Z,11.94
2018-10-18T07:01:45.216Z,11.94
2018-10-18T07:04:14.164Z,11.88
2018-10-18T07:06:43.020Z,11.95
2018-10-18T07:09:11.925Z,12.03
2018-10-18T07:11:40.880Z,11.96
2018-10-18T07:14:09.789Z,11.93
2018-10-18T07:16:38.676Z,11.89
2018-10-18T07:19:07.607Z,12.02
2018-10-18T07:21:36.475Z,12.16
2018-10-18T07:24:05.748Z,12.27
2018-10-18T07:26:34.589Z,12.29
2018-10-18T07:29:03.950Z,12.33
2018-10-18T07:31:32.818Z,12.19
2018-10-18T07:34:01.703Z,12.25
2018-10-18T07:36:30.609Z,12.28
2018-10-18T07:38:59.884Z,12.39
2018-10-18T07:41:28.773Z,12.55
2018-10-18T07:43:57.914Z,12.56
2018-10-18T07:46:26.844Z,12.54
2018-10-18T07:48:55.828Z,12.68
2018-10-18T07:51:24.756Z,12.70
2018-10-18T07:53:53.653Z,12.83
2018-10-18T07:56:22.547Z,12.90
2018-10-18T07:58:51.418Z,12.87
2018-10-18T08:01:20.380Z,12.74
2018-10-18T08:03:49.263Z,13.04
2018-10-18T08:06:18.253Z,13.20
2018-10-18T08:08:47.164Z,13.20
2018-10-18T08:11:16.103Z,13.25
2018-10-18T08:13:45.063Z,13.38
2018-10-18T08:16:14.013Z,13.43
2018-10-18T08:18:42.861Z,13.45
2018-10-18T08:21:11.778Z,13.53
2018-10-18T08:23:40.639Z,13.59
2018-10-18T08:26:09.624Z,13.66
2018-10-18T08:28:38.461Z,13.65
2018-10-18T08:31:07.797Z,13.84
2018-10-18T08:33:36.599Z,13.89
2018-10-18T08:36:05.618Z,13.86
2018-10-18T08:38:34.585Z,13.73
2018-10-18T08:41:03.520Z,13.87
2018-10-18T08:43:32.846Z,13.81
2018-10-18T08:46:01.685Z,13.92
2018-10-18T08:48:30.611Z,13.88
2018-10-18T08:50:59.555Z,13.90
2018-10-18T08:53:28.455Z,14.01
2018-10-18T08:55:57.316Z,14.10
2018-10-18T08:58:26.246Z,14.08
2018-10-18T09:00:55.151Z,14.08
2018-10-18T09:03:24.171Z,14.04
2018-10-18T09:05:53.024Z,14.15
2018-10-18T09:08:21.977Z,14.06
2018-10-18T09:10:50.803Z,14.20
2018-10-18T09:13:19.794Z,14.19
2018-10-18T09:15:48.720Z,14.03
2018-10-18T09:18:17.821Z,13.97
2018-10-18T09:20:46.989Z,13.88
2018-10-18T09:23:15.943Z,13.87
2018-10-18T09:25:44.828Z,14.06
2018-10-18T09:28:13.785Z,13.94
2018-10-18T09:30:43.028Z,14.03
2018-10-18T09:33:12.056Z,14.14
2018-10-18T09:35:40.927Z,14.08
2018-10-18T09:38:09.796Z,14.04
2018-10-18T09:40:38.808Z,14.18
2018-10-18T09:43:07.715Z,14.17
2018-10-18T09:45:36.617Z,14.27
2018-10-18T09:48:05.546Z,14.29
2018-10-18T09:50:34.530Z,14.32
2018-10-18T09:53:03.450Z,14.48
2018-10-18T09:55:32.492Z,14.51
2018-10-18T09:58:01.365Z,14.44
2018-10-18T10:00:35.936Z,14.49
2018-10-18T10:03:10.459Z,14.42
2018-10-18T10:05:39.386Z,14.53
2018-10-18T10:08:08.588Z,14.59
2018-10-18T10:10:37.836Z,14.56
2018-10-18T10:13:07.556Z,14.50
2018-10-18T10:15:36.424Z,14.41
2018-10-18T10:18:05.425Z,14.39
2018-10-18T10:20:34.325Z,14.53
2018-10-18T10:23:03.217Z,14.41
2018-10-18T10:25:32.219Z,14.51
2018-10-18T10:28:01.116Z,14.66
2018-10-18T10:30:30.017Z,14.60
2018-10-18T10:32:59.001Z,14.75
2018-10-18T10:35:27.927Z,14.57
2018-10-18T10:37:56.838Z,14.68
2018-10-18T10:40:25.745Z,14.74
2018-10-18T10:42:54.794Z,14.87
2018-10-18T10:45:23.705Z,14.80
2018-10-18T10:47:52.950Z,14.70
2018-10-18T10:50:22.280Z,14.58
2018-10-18T10:52:51.234Z,14.50
2018-10-18T10:55:20.114Z,14.49
2018-10-18T10:57:49.040Z,14.43
2018-10-18T11:00:33.800Z,14.48
2018-10-18T11:03:02.969Z,14.64
2018-10-18T11:05:31.795Z,14.69
2018-10-18T11:08:00.708Z,14.52
2018-10-18T11:10:29.634Z,14.51
2018-10-18T11:12:58.588Z,14.36
2018-10-18T11:15:27.490Z,14.52
2018-10-18T11:17:56.428Z,14.48
2018-10-18T11:20:25.337Z,14.61
2018-10-18T11:22:54.200Z,14.74
2018-10-18T11:25:23.092Z,14.78
2018-10-18T11:27:52.064Z,14.89
2018-10-18T11:30:20.942Z,14.99
2018-10-18T11:32:49.924Z,14.93
2018-10-18T11:35:18.768Z,14.80
2018-10-18T11:37:47.676Z,14.78
2018-10-18T11:40:16.677Z,14.85
2018-10-18T11:42:45.741Z,14.80
2018-10-18T11:45:19.554Z,14.73
2018-10-18T11:47:48.425Z,14.85
2018-10-18T11:50:17.539Z,14.83
2018-10-18T11:52:46.640Z,14.91
2018-10-18T11:55:15.851Z,14.93
2018-10-18T11:57:45.096Z,15.03
2018-10-18T12:00:17.631Z,15.02
2018-10-18T12:02:47.918Z,15.00
2018-10-18T12:05:17.353Z,15.02
2018-10-18T12:07:46.189Z,15.22
2018-10-18T12:10:15.143Z,15.15
2018-10-18T12:12:44.005Z,15.23
2018-10-18T12:15:13.041Z,15.23
2018-10-18T12:17:41.929Z,15.22
2018-10-18T12:20:15.564Z,15.19
2018-10-18T12:22:44.420Z,15.20
2018-10-18T12:25:13.949Z,15.26
2018-10-18T12:27:43.335Z,15.21
2018-10-18T12:30:13.275Z,15.36
2018-10-18T12:32:42.098Z,15.33
2018-10-18T12:35:11.056Z,15.45
2018-10-18T12:37:39.937Z,15.32
2018-10-18T12:40:09.438Z,15.45
2018-10-18T12:42:40.324Z,15.56
2018-10-18T12:45:15.293Z,15.42
2018-10-18T12:47:44.491Z,15.59
2018-10-18T12:50:13.732Z,15.40
2018-10-18T12:52:42.474Z,15.37
2018-10-18T12:55:11.332Z,15.34
2018-10-18T12:57:40.276Z,15.12
2018-10-18T13:00:10.409Z,15.07
2018-10-18T13:02:39.461Z,14.86
2018-10-18T13:05:09.794Z,14.87
2018-10-18T13:07:38.799Z,14.56
2018-10-18T13:10:10.104Z,14.58
2018-10-18T13:12:39.406Z,14.67
2018-10-18T13:15:09.971Z,14.67
2018-10-18T13:17:39.227Z,14.56
2018-10-18T13:20:09.554Z,14.61
2018-10-18T13:22:38.608Z,14.58
2018-10-18T13:25:09.244Z,14.68
2018-10-18T13:27:38.542Z,14.72
2018-10-18T13:30:09.208Z,14.57
2018-10-18T13:32:39.109Z,14.47
2018-10-18T13:35:08.767Z,14.49
2018-10-18T13:37:37.700Z,14.53
2018-10-18T13:40:08.059Z,14.37
2018-10-18T13:42:37.379Z,14.33
2018-10-18T13:45:09.065Z,14.37
2018-10-18T13:47:38.137Z,14.64
2018-10-18T13:50:07.918Z,14.50
2018-10-18T13:52:38.592Z,14.45
2018-10-18T13:55:07.454Z,14.41
2018-10-18T13:57:36.437Z,14.48
2018-10-18T14:00:19.764Z,14.65
2018-10-18T14:02:51.836Z,14.64
2018-10-18T14:05:21.125Z,14.79
2018-10-18T14:07:51.100Z,14.83
2018-10-18T14:10:20.085Z,14.62
2018-10-18T14:12:49.408Z,14.62
2018-10-18T14:15:18.531Z,14.53
2018-10-18T14:17:47.470Z,14.78
2018-10-18T14:20:16.711Z,14.84
2018-10-18T14:22:45.525Z,14.93
2018-10-18T14:25:14.440Z,15.04
2018-10-18T14:27:43.563Z,15.01
2018-10-18T14:30:13.267Z,14.89
2018-10-18T14:32:42.090Z,15.13
2018-10-18T14:35:12.320Z,15.15
2018-10-18T14:37:41.157Z,14.92
2018-10-18T14:40:11.179Z,14.75
2018-10-18T14:42:40.135Z,14.50
2018-10-18T14:45:09.610Z,14.35
2018-10-18T14:47:38.681Z,14.42
2018-10-18T14:50:10.742Z,14.32
2018-10-18T14:52:45.384Z,14.43
2018-10-18T14:55:20.260Z,14.47
2018-10-18T14:57:49.301Z,14.33
2018-10-18T15:00:18.193Z,14.28
2018-10-18T15:02:47.176Z,14.39
2018-10-18T15:05:16.259Z,14.44
2018-10-18T15:07:45.005Z,14.42
2018-10-18T15:10:14.288Z,14.40
2018-10-18T15:12:43.371Z,14.29
2018-10-18T15:15:13.411Z,14.31
2018-10-18T15:17:42.434Z,14.20
2018-10-18T15:20:12.214Z,14.20
2018-10-18T15:22:41.965Z,14.23
2018-10-18T15:25:11.791Z,14.24
2018-10-18T15:27:41.434Z,14.22
2018-10-18T15:30:10.997Z,14.31
2018-10-18T15:32:39.910Z,14.30
2018-10-18T15:35:10.259Z,14.32
2018-10-18T15:37:39.646Z,14.24
2018-10-18T15:40:09.043Z,14.30
2018-10-18T15:42:38.050Z,14.42
2018-10-18T15:45:09.789Z,14.44
2018-10-18T15:47:38.888Z,14.29
2018-10-18T15:50:09.345Z,14.20
2018-10-18T15:52:38.363Z,14.24
2018-10-18T15:55:07.753Z,14.06
2018-10-18T15:57:36.689Z,14.09
2018-10-18T16:00:08.090Z,14.08
2018-10-18T16:02:36.943Z,14.29
2018-10-18T16:05:06.383Z,13.94
2018-10-18T16:07:35.295Z,14.14
2018-10-18T16:10:04.771Z,14.06
2018-10-18T16:12:33.689Z,14.01
2018-10-18T16:15:02.558Z,13.88
2018-10-18T16:17:31.905Z,13.95
2018-10-18T16:20:00.916Z,13.80
2018-10-18T16:22:29.722Z,13.99
2018-10-18T16:24:58.608Z,13.82
2018-10-18T16:27:27.501Z,13.61
2018-10-18T16:29:56.701Z,13.41
2018-10-18T16:32:25.562Z,13.31
2018-10-18T16:34:54.498Z,13.14
2018-10-18T16:37:23.290Z,12.97
2018-10-18T16:39:52.234Z,13.02
2018-10-18T16:42:21.244Z,13.27
2018-10-18T16:44:50.256Z,13.15
2018-10-18T16:47:19.091Z,12.94
2018-10-18T16:49:48.020Z,12.95
2018-10-18T16:52:16.940Z,13.01
2018-10-18T16:54:45.860Z,12.88
2018-10-18T16:57:14.713Z,12.97
2018-10-18T16:59:43.613Z,12.89
2018-10-18T17:02:12.526Z,12.83
2018-10-18T17:04:41.558Z,12.83
2018-10-18T17:07:10.344Z,12.78
2018-10-18T17:09:39.334Z,12.66
2018-10-18T17:12:08.501Z,12.66
2018-10-18T17:14:37.355Z,12.54
2018-10-18T17:17:06.450Z,12.48
2018-10-18T17:19:35.336Z,12.55
2018-10-18T17:22:04.416Z,12.28
2018-10-18T17:24:33.309Z,12.34
2018-10-18T17:27:02.250Z,12.29
2018-10-18T17:29:31.109Z,12.19
2018-10-18T17:32:00.136Z,12.22
2018-10-18T17:34:29.017Z,12.17
2018-10-18T17:36:57.877Z,12.20
2018-10-18T17:39:26.784Z,12.08
2018-10-18T17:41:55.721Z,11.94
2018-10-18T17:44:24.857Z,11.93
2018-10-18T17:46:53.784Z,11.82
2018-10-18T17:49:22.649Z,11.75
2018-10-18T17:51:51.627Z,11.65
2018-10-18T17:54:20.581Z,11.73
2018-10-18T17:56:49.517Z,11.74
2018-10-18T17:59:18.486Z,11.60
2018-10-18T18:01:47.511Z,11.66
2018-10-18T18:04:16.420Z,11.58
2018-10-18T18:06:45.459Z,11.46
2018-10-18T18:09:14.434Z,11.43
2018-10-18T18:11:43.323Z,11.40
2018-10-18T18:14:12.245Z,11.32
2018-10-18T18:16:41.155Z,11.29
2018-10-18T18:19:10.087Z,11.25
2018-10-18T18:21:39.088Z,11.20
2018-10-18T18:24:08.022Z,11.21
2018-10-18T18:26:45.220Z,11.06
2018-10-18T18:29:05.844Z,11.15
2018-10-18T18:31:34.671Z,11.00
2018-10-18T18:34:03.741Z,11.00
2018-10-18T18:36:32.560Z,10.99
2018-10-18T18:39:01.452Z,10.77
2018-10-18T18:41:30.287Z,10.88
2018-10-18T18:43:59.236Z,10.96
2018-10-18T18:46:29.026Z,10.89
2018-10-18T18:48:57.939Z,10.70
2018-10-18T18:51:26.886Z,10.65
2018-10-18T18:53:56.037Z,10.54
2018-10-18T18:56:24.885Z,10.58
2018-10-18T18:58:53.792Z,10.45
2018-10-18T19:01:22.836Z,10.62
2018-10-18T19:03:51.709Z,10.43
2018-10-18T19:06:20.865Z,10.55
2018-10-18T19:08:50.075Z,10.59
2018-10-18T19:11:19.571Z,10.43
2018-10-18T19:13:48.415Z,10.46
2018-10-18T19:16:17.330Z,10.42
2018-10-18T19:18:46.146Z,10.26
2018-10-18T19:21:15.038Z,10.28
2018-10-18T19:23:43.956Z,10.20
2018-10-18T19:26:12.878Z,10.24
2018-10-18T19:28:41.776Z,10.25
2018-10-18T19:31:10.632Z,10.16
2018-10-18T19:33:39.518Z,10.16
2018-10-18T19:36:08.473Z,10.09
2018-10-18T19:38:37.382Z,10.10
2018-10-18T19:41:06.248Z,10.07
2018-10-18T19:43:35.114Z,10.09
2018-10-18T19:46:05.030Z,9.97
2018-10-18T19:48:33.952Z,10.06
2018-10-18T19:51:02.845Z,9.90
2018-10-18T19:53:31.668Z,9.87
2018-10-18T19:56:00.513Z,9.77
2018-10-18T19:58:29.662Z,9.74
2018-10-18T20:00:58.581Z,9.60
2018-10-18T20:03:27.409Z,9.76
2018-10-18T20:05:56.296Z,9.46
2018-10-18T20:08:25.085Z,9.55
2018-10-18T20:10:53.899Z,9.64
2018-10-18T20:13:22.835Z,9.43
2018-10-18T20:15:51.677Z,9.42
2018-10-18T20:18:20.627Z,9.45
2018-10-18T20:20:49.477Z,9.47
2018-10-18T20:23:18.316Z,9.34
2018-10-18T20:25:47.422Z,9.19
2018-10-18T20:28:16.418Z,9.27
2018-10-18T20:30:45.235Z,9.31
2018-10-18T20:33:14.171Z,9.33
2018-10-18T20:35:43.078Z,9.26
2018-10-18T20:38:12.094Z,9.23
2018-10-18T20:40:41.202Z,9.16
2018-10-18T20:43:10.093Z,9.19
2018-10-18T20:45:38.907Z,9.21
2018-10-18T20:48:07.943Z,9.23
2018-10-18T20:50:36.721Z,9.01
2018-10-18T20:53:05.699Z,9.07
2018-10-18T20:55:34.558Z,9.12
2018-10-18T20:58:03.652Z,9.02
2018-10-18T21:00:32.516Z,9.04
2018-10-18T21:03:01.578Z,9.04
2018-10-18T21:05:30.406Z,8.90
2018-10-18T21:07:59.244Z,8.87
2018-10-18T21:10:28.178Z,8.96
2018-10-18T21:12:57.065Z,8.91
2018-10-18T21:15:25.984Z,8.82
2018-10-18T21:17:54.830Z,8.77
2018-10-18T21:20:23.709Z,8.79
2018-10-18T21:22:52.550Z,8.71
2018-10-18T21:25:21.415Z,8.67
2018-10-18T21:27:50.362Z,8.70
2018-10-18T21:30:19.272Z,8.66
2018-10-18T21:32:48.087Z,8.71
2018-10-18T21:35:17.019Z,8.71
2018-10-18T21:37:45.757Z,8.65
2018-10-18T21:40:14.931Z,8.50
2018-10-18T21:42:43.739Z,8.56
2018-10-18T21:45:12.879Z,8.54
2018-10-18T21:47:42.170Z,8.55
2018-10-18T21:50:11.057Z,8.48
2018-10-18T21:52:39.989Z,8.23
2018-10-18T21:55:09.160Z,8.36
2018-10-18T21:57:37.972Z,8.27
2018-10-18T22:00:13.284Z,8.35
2018-10-18T22:02:43.267Z,8.36
2018-10-18T22:05:13.218Z,8.24
2018-10-18T22:07:42.521Z,8.37
2018-10-18T22:10:12.146Z,8.11
2018-10-18T22:12:41.076Z,8.10
2018-10-18T22:15:10.677Z,8.20
2018-10-18T22:17:39.555Z,8.04
2018-10-18T22:20:09.867Z,7.95
2018-10-18T22:22:38.748Z,7.83
2018-10-18T22:25:08.932Z,7.80
2018-10-18T22:27:37.961Z,7.81
2018-10-18T22:30:07.632Z,7.73
2018-10-18T22:32:36.820Z,7.68
2018-10-18T22:35:05.794Z,7.70
2018-10-18T22:37:34.625Z,7.62
2018-10-18T22:40:03.697Z,7.54
2018-10-18T22:42:32.607Z,7.48
2018-10-18T22:45:02.430Z,7.46
2018-10-18T22:47:31.280Z,7.46
2018-10-18T22:50:00.117Z,7.50
2018-10-18T22:52:29.041Z,7.23
2018-10-18T22:54:57.920Z,7.36
2018-10-18T22:57:26.813Z,7.42
2018-10-18T22:59:55.630Z,7.27
2018-10-18T23:02:24.512Z,7.14
2018-10-18T23:04:53.428Z,7.11
2018-10-18T23:07:22.271Z,7.17
2018-10-18T23:09:51.384Z,6.97
2018-10-18T23:12:20.200Z,6.87
2018-10-18T23:14:49.064Z,7.07
2018-10-18T23:17:17.933Z,6.99
2018-10-18T23:19:46.810Z,6.94
2018-10-18T23:22:15.647Z,6.88
2018-10-18T23:24:44.547Z,6.51
2018-10-18T23:27:12.807Z,6.72
2018-10-18T23:29:41.699Z,6.57
2018-10-18T23:32:10.872Z,6.66
2018-10-18T23:34:39.782Z,6.55
2018-10-18T23:37:08.597Z,6.75
2018-10-18T23:39:37.797Z,6.62
2018-10-18T23:42:06.696Z,6.62
2018-10-18T23:44:35.631Z,6.57
2018-10-18T23:47:05.144Z,6.59
2018-10-18T23:49:34.018Z,6.66
2018-10-18T23:52:02.894Z,6.64
2018-10-18T23:54:32.002Z,6.61
2018-10-18T23:57:00.890Z,6.60
2018-10-18T23:59:29.722Z,6.66
